sensor_id;sensor_type;location;lat;lon;timestamp;P1;durP1;ratioP1;P2;durP2;ratioP2
1382;SDS011;685;47.196;11.880;2023-02-13T00:01:11;6.87;;;4.23;;
1382;SDS011;685;47.196;11.880;2023-02-13T00:03:38;4.43;;;2.93;;
1382;SDS011;685;47.196;11.880;2023-02-13T00:06:06;3.80;;;2.53;;
1382;SDS011;685;47.196;11.880;2023-02-13T00:08:33;3.43;;;2.10;;
1382;SDS011;685;47.196;11.880;2023-02-13T00:11:00;4.47;;;2.17;;
1382;SDS011;685;47.196;11.880;2023-02-13T00:13:27;3.67;;;1.57;;
1382;SDS011;685;47.196;11.880;2023-02-13T00:15:56;8.97;;;3.23;;
1382;SDS011;685;47.196;11.880;2023-02-13T00:18:24;3.07;;;2.17;;
1382;SDS011;685;47.196;11.880;2023-02-13T00:20:57;5.90;;;2.70;;
1382;SDS011;685;47.196;11.880;2023-02-13T00:23:25;3.00;;;2.50;;
1382;SDS011;685;47.196;11.880;2023-02-13T00:25:52;2.53;;;2.13;;
1382;SDS011;685;47.196;11.880;2023-02-13T00:28:19;3.97;;;2.33;;
1382;SDS011;685;47.196;11.880;2023-02-13T00:30:46;2.10;;;1.90;;
1382;SDS011;685;47.196;11.880;2023-02-13T00:33:14;2.43;;;2.03;;
1382;SDS011;685;47.196;11.880;2023-02-13T00:35:41;2.50;;;1.50;;
1382;SDS011;685;47.196;11.880;2023-02-13T00:38:08;2.60;;;1.60;;
1382;SDS011;685;47.196;11.880;2023-02-13T00:40:35;2.10;;;1.70;;
1382;SDS011;685;47.196;11.880;2023-02-13T00:43:01;1.87;;;1.40;;
1382;SDS011;685;47.196;11.880;2023-02-13T00:45:28;1.57;;;1.17;;
1382;SDS011;685;47.196;11.880;2023-02-13T00:47:56;1.70;;;1.13;;
1382;SDS011;685;47.196;11.880;2023-02-13T00:50:24;1.20;;;1.07;;
1382;SDS011;685;47.196;11.880;2023-02-13T00:52:51;2.87;;;1.37;;
1382;SDS011;685;47.196;11.880;2023-02-13T00:55:17;2.80;;;1.43;;
1382;SDS011;685;47.196;11.880;2023-02-13T00:57:44;1.70;;;1.60;;
1382;SDS011;685;47.196;11.880;2023-02-13T01:00:12;2.30;;;1.80;;
1382;SDS011;685;47.196;11.880;2023-02-13T01:02:39;2.87;;;1.20;;
1382;SDS011;685;47.196;11.880;2023-02-13T01:05:06;4.23;;;1.50;;
1382;SDS011;685;47.196;11.880;2023-02-13T01:07:35;1.37;;;1.20;;
1382;SDS011;685;47.196;11.880;2023-02-13T01:10:01;1.80;;;1.30;;
1382;SDS011;685;47.196;11.880;2023-02-13T01:12:29;2.20;;;1.30;;
1382;SDS011;685;47.196;11.880;2023-02-13T01:14:56;2.20;;;1.07;;
1382;SDS011;685;47.196;11.880;2023-02-13T01:17:22;2.30;;;1.53;;
1382;SDS011;685;47.196;11.880;2023-02-13T01:19:49;1.70;;;1.40;;
1382;SDS011;685;47.196;11.880;2023-02-13T01:22:16;1.87;;;1.57;;
1382;SDS011;685;47.196;11.880;2023-02-13T01:24:44;2.07;;;1.13;;
1382;SDS011;685;47.196;11.880;2023-02-13T01:27:11;2.00;;;1.23;;
1382;SDS011;685;47.196;11.880;2023-02-13T01:29:38;1.43;;;1.03;;
1382;SDS011;685;47.196;11.880;2023-02-13T01:32:05;1.10;;;0.90;;
1382;SDS011;685;47.196;11.880;2023-02-13T01:34:32;1.60;;;1.20;;
1382;SDS011;685;47.196;11.880;2023-02-13T01:36:59;2.30;;;1.30;;
1382;SDS011;685;47.196;11.880;2023-02-13T01:39:26;1.20;;;1.00;;
1382;SDS011;685;47.196;11.880;2023-02-13T01:41:54;2.73;;;1.17;;
1382;SDS011;685;47.196;11.880;2023-02-13T01:47:15;1.47;;;1.20;;
1382;SDS011;685;47.196;11.880;2023-02-13T01:49:49;1.47;;;1.17;;
1382;SDS011;685;47.196;11.880;2023-02-13T01:52:31;2.20;;;1.20;;
1382;SDS011;685;47.196;11.880;2023-02-13T01:54:59;1.40;;;0.90;;
1382;SDS011;685;47.196;11.880;2023-02-13T01:57:27;1.10;;;0.70;;
1382;SDS011;685;47.196;11.880;2023-02-13T01:59:59;1.20;;;0.80;;
1382;SDS011;685;47.196;11.880;2023-02-13T02:02:30;1.37;;;0.90;;
1382;SDS011;685;47.196;11.880;2023-02-13T02:05:01;1.10;;;0.80;;
1382;SDS011;685;47.196;11.880;2023-02-13T02:07:29;1.10;;;0.93;;
1382;SDS011;685;47.196;11.880;2023-02-13T02:09:58;1.47;;;1.30;;
1382;SDS011;685;47.196;11.880;2023-02-13T02:12:30;1.50;;;1.30;;
1382;SDS011;685;47.196;11.880;2023-02-13T02:15:01;1.53;;;1.43;;
1382;SDS011;685;47.196;11.880;2023-02-13T02:17:30;2.77;;;1.87;;
1382;SDS011;685;47.196;11.880;2023-02-13T02:20:00;1.80;;;1.50;;
1382;SDS011;685;47.196;11.880;2023-02-13T02:25:56;1.60;;;1.27;;
1382;SDS011;685;47.196;11.880;2023-02-13T02:29:02;3.97;;;0.93;;
1382;SDS011;685;47.196;11.880;2023-02-13T02:31:59;1.60;;;1.07;;
1382;SDS011;685;47.196;11.880;2023-02-13T02:34:51;1.40;;;1.20;;
1382;SDS011;685;47.196;11.880;2023-02-13T02:37:31;1.43;;;1.10;;
1382;SDS011;685;47.196;11.880;2023-02-13T02:40:10;1.67;;;1.10;;
1382;SDS011;685;47.196;11.880;2023-02-13T02:42:52;1.60;;;1.13;;
1382;SDS011;685;47.196;11.880;2023-02-13T02:45:27;2.57;;;1.90;;
1382;SDS011;685;47.196;11.880;2023-02-13T02:48:08;1.73;;;1.10;;
1382;SDS011;685;47.196;11.880;2023-02-13T02:51:00;1.37;;;0.90;;
1382;SDS011;685;47.196;11.880;2023-02-13T02:53:34;1.30;;;0.90;;
1382;SDS011;685;47.196;11.880;2023-02-13T02:56:08;1.67;;;1.47;;
1382;SDS011;685;47.196;11.880;2023-02-13T02:58:41;1.70;;;0.90;;
1382;SDS011;685;47.196;11.880;2023-02-13T03:01:29;1.30;;;1.20;;
1382;SDS011;685;47.196;11.880;2023-02-13T03:04:19;1.37;;;1.20;;
1382;SDS011;685;47.196;11.880;2023-02-13T03:07:08;2.07;;;1.80;;
1382;SDS011;685;47.196;11.880;2023-02-13T03:09:40;1.57;;;1.00;;
1382;SDS011;685;47.196;11.880;2023-02-13T03:12:32;3.80;;;1.67;;
1382;SDS011;685;47.196;11.880;2023-02-13T03:15:21;2.00;;;1.23;;
1382;SDS011;685;47.196;11.880;2023-02-13T03:17:50;1.87;;;1.13;;
1382;SDS011;685;47.196;11.880;2023-02-13T03:20:39;1.50;;;1.30;;
1382;SDS011;685;47.196;11.880;2023-02-13T03:23:30;2.57;;;1.27;;
1382;SDS011;685;47.196;11.880;2023-02-13T03:26:08;2.00;;;1.40;;
1382;SDS011;685;47.196;11.880;2023-02-13T03:29:17;1.10;;;1.00;;
1382;SDS011;685;47.196;11.880;2023-02-13T03:32:09;2.27;;;1.50;;
1382;SDS011;685;47.196;11.880;2023-02-13T03:34:42;1.40;;;1.13;;
1382;SDS011;685;47.196;11.880;2023-02-13T03:37:36;2.73;;;1.53;;
1382;SDS011;685;47.196;11.880;2023-02-13T03:40:20;2.80;;;1.33;;
1382;SDS011;685;47.196;11.880;2023-02-13T03:42:54;1.63;;;1.20;;
1382;SDS011;685;47.196;11.880;2023-02-13T03:45:26;1.80;;;1.63;;
1382;SDS011;685;47.196;11.880;2023-02-13T03:48:12;2.13;;;1.77;;
1382;SDS011;685;47.196;11.880;2023-02-13T03:50:56;1.93;;;1.50;;
1382;SDS011;685;47.196;11.880;2023-02-13T03:53:26;2.07;;;1.87;;
1382;SDS011;685;47.196;11.880;2023-02-13T03:55:55;1.57;;;1.47;;
1382;SDS011;685;47.196;11.880;2023-02-13T03:58:41;2.17;;;1.60;;
1382;SDS011;685;47.196;11.880;2023-02-13T04:01:30;2.07;;;1.60;;
1382;SDS011;685;47.196;11.880;2023-02-13T04:04:01;2.20;;;1.70;;
1382;SDS011;685;47.196;11.880;2023-02-13T04:06:35;2.47;;;2.27;;
1382;SDS011;685;47.196;11.880;2023-02-13T04:09:06;2.57;;;2.20;;
1382;SDS011;685;47.196;11.880;2023-02-13T04:11:34;2.10;;;1.90;;
1382;SDS011;685;47.196;11.880;2023-02-13T04:14:05;1.80;;;1.70;;
1382;SDS011;685;47.196;11.880;2023-02-13T04:16:35;1.33;;;1.23;;
1382;SDS011;685;47.196;11.880;2023-02-13T04:19:04;2.63;;;1.23;;
1382;SDS011;685;47.196;11.880;2023-02-13T04:21:33;2.07;;;1.40;;
1382;SDS011;685;47.196;11.880;2023-02-13T04:24:00;1.40;;;1.10;;
1382;SDS011;685;47.196;11.880;2023-02-13T04:26:32;1.40;;;1.03;;
1382;SDS011;685;47.196;11.880;2023-02-13T04:29:01;2.07;;;1.20;;
1382;SDS011;685;47.196;11.880;2023-02-13T04:31:28;1.90;;;1.30;;
1382;SDS011;685;47.196;11.880;2023-02-13T04:33:55;1.70;;;1.10;;
1382;SDS011;685;47.196;11.880;2023-02-13T04:36:22;1.93;;;1.30;;
1382;SDS011;685;47.196;11.880;2023-02-13T04:38:49;2.00;;;1.73;;
1382;SDS011;685;47.196;11.880;2023-02-13T04:41:16;1.27;;;0.93;;
1382;SDS011;685;47.196;11.880;2023-02-13T04:43:44;1.50;;;1.03;;
1382;SDS011;685;47.196;11.880;2023-02-13T04:46:11;1.20;;;1.03;;
1382;SDS011;685;47.196;11.880;2023-02-13T04:48:39;1.40;;;1.30;;
1382;SDS011;685;47.196;11.880;2023-02-13T04:51:06;1.83;;;1.30;;
1382;SDS011;685;47.196;11.880;2023-02-13T04:53:33;1.93;;;1.53;;
1382;SDS011;685;47.196;11.880;2023-02-13T04:56:00;2.07;;;1.10;;
1382;SDS011;685;47.196;11.880;2023-02-13T04:58:27;1.37;;;1.00;;
1382;SDS011;685;47.196;11.880;2023-02-13T05:00:55;1.20;;;1.03;;
1382;SDS011;685;47.196;11.880;2023-02-13T05:03:22;1.60;;;1.30;;
1382;SDS011;685;47.196;11.880;2023-02-13T05:05:49;1.97;;;1.33;;
1382;SDS011;685;47.196;11.880;2023-02-13T05:08:16;3.13;;;1.53;;
1382;SDS011;685;47.196;11.880;2023-02-13T05:10:43;3.10;;;2.10;;
1382;SDS011;685;47.196;11.880;2023-02-13T05:13:09;1.80;;;1.40;;
1382;SDS011;685;47.196;11.880;2023-02-13T05:15:36;2.23;;;2.03;;
1382;SDS011;685;47.196;11.880;2023-02-13T05:18:05;2.10;;;1.73;;
1382;SDS011;685;47.196;11.880;2023-02-13T05:20:31;1.70;;;1.60;;
1382;SDS011;685;47.196;11.880;2023-02-13T05:22:58;2.40;;;2.20;;
1382;SDS011;685;47.196;11.880;2023-02-13T05:25:42;6.90;;;5.13;;
1382;SDS011;685;47.196;11.880;2023-02-13T05:28:09;5.93;;;3.77;;
1382;SDS011;685;47.196;11.880;2023-02-13T05:30:50;3.23;;;2.40;;
1382;SDS011;685;47.196;11.880;2023-02-13T05:33:18;4.43;;;2.97;;
1382;SDS011;685;47.196;11.880;2023-02-13T05:35:45;2.73;;;2.30;;
1382;SDS011;685;47.196;11.880;2023-02-13T05:38:12;2.93;;;2.30;;
1382;SDS011;685;47.196;11.880;2023-02-13T05:40:39;2.80;;;2.10;;
1382;SDS011;685;47.196;11.880;2023-02-13T05:43:06;4.33;;;3.67;;
1382;SDS011;685;47.196;11.880;2023-02-13T05:45:33;5.10;;;3.00;;
1382;SDS011;685;47.196;11.880;2023-02-13T05:48:00;5.10;;;3.77;;
1382;SDS011;685;47.196;11.880;2023-02-13T05:50:28;4.03;;;2.33;;
1382;SDS011;685;47.196;11.880;2023-02-13T05:52:55;2.70;;;2.00;;
1382;SDS011;685;47.196;11.880;2023-02-13T05:55:22;2.20;;;1.80;;
1382;SDS011;685;47.196;11.880;2023-02-13T05:57:48;2.13;;;1.93;;
1382;SDS011;685;47.196;11.880;2023-02-13T06:00:16;3.30;;;2.30;;
1382;SDS011;685;47.196;11.880;2023-02-13T06:02:43;1.60;;;1.43;;
1382;SDS011;685;47.196;11.880;2023-02-13T06:05:10;3.10;;;2.80;;
1382;SDS011;685;47.196;11.880;2023-02-13T06:07:38;2.30;;;1.80;;
1382;SDS011;685;47.196;11.880;2023-02-13T06:10:06;3.50;;;2.10;;
1382;SDS011;685;47.196;11.880;2023-02-13T06:12:33;2.13;;;1.93;;
1382;SDS011;685;47.196;11.880;2023-02-13T06:15:00;2.70;;;1.90;;
1382;SDS011;685;47.196;11.880;2023-02-13T06:17:26;2.60;;;1.77;;
1382;SDS011;685;47.196;11.880;2023-02-13T06:19:53;2.33;;;1.73;;
1382;SDS011;685;47.196;11.880;2023-02-13T06:22:20;2.37;;;1.63;;
1382;SDS011;685;47.196;11.880;2023-02-13T06:24:48;3.77;;;1.53;;
1382;SDS011;685;47.196;11.880;2023-02-13T06:27:15;1.20;;;1.10;;
1382;SDS011;685;47.196;11.880;2023-02-13T06:29:42;2.43;;;2.07;;
1382;SDS011;685;47.196;11.880;2023-02-13T06:32:09;3.73;;;2.67;;
1382;SDS011;685;47.196;11.880;2023-02-13T06:34:36;2.67;;;1.80;;
1382;SDS011;685;47.196;11.880;2023-02-13T06:37:03;2.53;;;1.60;;
1382;SDS011;685;47.196;11.880;2023-02-13T06:39:29;4.80;;;4.00;;
1382;SDS011;685;47.196;11.880;2023-02-13T06:41:58;5.00;;;3.70;;
1382;SDS011;685;47.196;11.880;2023-02-13T06:44:24;4.17;;;3.40;;
1382;SDS011;685;47.196;11.880;2023-02-13T06:46:51;7.20;;;4.33;;
1382;SDS011;685;47.196;11.880;2023-02-13T06:49:18;7.33;;;4.63;;
1382;SDS011;685;47.196;11.880;2023-02-13T06:51:45;7.60;;;5.10;;
1382;SDS011;685;47.196;11.880;2023-02-13T06:54:12;5.27;;;4.00;;
1382;SDS011;685;47.196;11.880;2023-02-13T06:56:39;4.37;;;3.90;;
1382;SDS011;685;47.196;11.880;2023-02-13T06:59:07;3.83;;;2.80;;
1382;SDS011;685;47.196;11.880;2023-02-13T07:01:34;4.90;;;3.30;;
1382;SDS011;685;47.196;11.880;2023-02-13T07:04:01;4.17;;;3.30;;
1382;SDS011;685;47.196;11.880;2023-02-13T07:06:28;6.87;;;3.50;;
1382;SDS011;685;47.196;11.880;2023-02-13T07:08:55;5.17;;;3.33;;
1382;SDS011;685;47.196;11.880;2023-02-13T07:11:22;9.10;;;3.80;;
1382;SDS011;685;47.196;11.880;2023-02-13T07:13:50;8.80;;;4.97;;
1382;SDS011;685;47.196;11.880;2023-02-13T07:16:18;6.93;;;4.00;;
1382;SDS011;685;47.196;11.880;2023-02-13T07:18:45;5.93;;;4.90;;
1382;SDS011;685;47.196;11.880;2023-02-13T07:21:12;7.50;;;5.80;;
1382;SDS011;685;47.196;11.880;2023-02-13T07:23:39;9.63;;;6.47;;
1382;SDS011;685;47.196;11.880;2023-02-13T07:26:06;4.77;;;4.30;;
1382;SDS011;685;47.196;11.880;2023-02-13T07:28:35;5.13;;;4.60;;
1382;SDS011;685;47.196;11.880;2023-02-13T07:31:02;6.63;;;5.33;;
1382;SDS011;685;47.196;11.880;2023-02-13T07:33:32;8.17;;;6.40;;
1382;SDS011;685;47.196;11.880;2023-02-13T07:35:59;6.90;;;6.03;;
1382;SDS011;685;47.196;11.880;2023-02-13T07:38:27;5.10;;;4.00;;
1382;SDS011;685;47.196;11.880;2023-02-13T07:40:56;3.87;;;3.47;;
1382;SDS011;685;47.196;11.880;2023-02-13T07:43:23;4.50;;;4.10;;
1382;SDS011;685;47.196;11.880;2023-02-13T07:45:50;5.27;;;4.10;;
1382;SDS011;685;47.196;11.880;2023-02-13T07:48:19;4.93;;;4.43;;
1382;SDS011;685;47.196;11.880;2023-02-13T07:50:48;4.67;;;3.60;;
1382;SDS011;685;47.196;11.880;2023-02-13T07:53:15;3.00;;;2.67;;
1382;SDS011;685;47.196;11.880;2023-02-13T07:55:42;3.80;;;3.40;;
1382;SDS011;685;47.196;11.880;2023-02-13T07:58:09;5.50;;;3.33;;
1382;SDS011;685;47.196;11.880;2023-02-13T08:00:36;4.80;;;3.83;;
1382;SDS011;685;47.196;11.880;2023-02-13T08:03:03;4.57;;;3.63;;
1382;SDS011;685;47.196;11.880;2023-02-13T08:05:30;3.57;;;3.27;;
1382;SDS011;685;47.196;11.880;2023-02-13T08:07:59;4.80;;;3.40;;
1382;SDS011;685;47.196;11.880;2023-02-13T08:10:26;2.57;;;2.37;;
1382;SDS011;685;47.196;11.880;2023-02-13T08:13:11;2.47;;;2.27;;
1382;SDS011;685;47.196;11.880;2023-02-13T08:15:39;4.07;;;2.30;;
1382;SDS011;685;47.196;11.880;2023-02-13T08:18:08;3.57;;;2.93;;
1382;SDS011;685;47.196;11.880;2023-02-13T08:20:35;4.17;;;2.97;;
1382;SDS011;685;47.196;11.880;2023-02-13T08:23:04;3.17;;;2.60;;
1382;SDS011;685;47.196;11.880;2023-02-13T08:25:32;2.73;;;2.53;;
1382;SDS011;685;47.196;11.880;2023-02-13T08:27:59;3.23;;;2.93;;
1382;SDS011;685;47.196;11.880;2023-02-13T08:30:26;3.00;;;2.70;;
1382;SDS011;685;47.196;11.880;2023-02-13T08:32:53;2.87;;;2.67;;
1382;SDS011;685;47.196;11.880;2023-02-13T08:35:21;4.17;;;3.70;;
1382;SDS011;685;47.196;11.880;2023-02-13T08:37:50;6.90;;;4.17;;
1382;SDS011;685;47.196;11.880;2023-02-13T08:40:19;4.57;;;4.13;;
1382;SDS011;685;47.196;11.880;2023-02-13T08:42:46;4.57;;;3.67;;
1382;SDS011;685;47.196;11.880;2023-02-13T08:45:12;2.20;;;1.80;;
1382;SDS011;685;47.196;11.880;2023-02-13T08:47:39;4.10;;;1.77;;
1382;SDS011;685;47.196;11.880;2023-02-13T08:50:06;2.90;;;2.60;;
1382;SDS011;685;47.196;11.880;2023-02-13T08:52:34;4.83;;;3.53;;
1382;SDS011;685;47.196;11.880;2023-02-13T08:55:01;4.90;;;2.60;;
1382;SDS011;685;47.196;11.880;2023-02-13T08:57:29;2.80;;;2.27;;
1382;SDS011;685;47.196;11.880;2023-02-13T08:59:57;2.50;;;1.80;;
1382;SDS011;685;47.196;11.880;2023-02-13T09:02:23;2.00;;;1.70;;
1382;SDS011;685;47.196;11.880;2023-02-13T09:04:50;2.70;;;2.03;;
1382;SDS011;685;47.196;11.880;2023-02-13T09:07:17;4.00;;;3.13;;
1382;SDS011;685;47.196;11.880;2023-02-13T09:09:44;6.47;;;4.60;;
1382;SDS011;685;47.196;11.880;2023-02-13T09:12:11;10.93;;;5.43;;
1382;SDS011;685;47.196;11.880;2023-02-13T09:14:39;16.87;;;9.10;;
1382;SDS011;685;47.196;11.880;2023-02-13T09:17:06;10.27;;;6.80;;
1382;SDS011;685;47.196;11.880;2023-02-13T09:19:33;6.00;;;5.23;;
1382;SDS011;685;47.196;11.880;2023-02-13T09:22:00;5.30;;;3.40;;
1382;SDS011;685;47.196;11.880;2023-02-13T09:24:26;10.80;;;8.07;;
1382;SDS011;685;47.196;11.880;2023-02-13T09:26:53;10.10;;;7.60;;
1382;SDS011;685;47.196;11.880;2023-02-13T09:29:21;4.03;;;3.40;;
1382;SDS011;685;47.196;11.880;2023-02-13T09:31:49;3.60;;;3.30;;
1382;SDS011;685;47.196;11.880;2023-02-13T09:34:16;6.33;;;3.67;;
1382;SDS011;685;47.196;11.880;2023-02-13T09:36:43;5.30;;;4.10;;
1382;SDS011;685;47.196;11.880;2023-02-13T09:39:10;15.23;;;10.57;;
1382;SDS011;685;47.196;11.880;2023-02-13T09:41:38;70.57;;;49.97;;
1382;SDS011;685;47.196;11.880;2023-02-13T09:44:10;33.13;;;24.93;;
1382;SDS011;685;47.196;11.880;2023-02-13T09:46:57;14.47;;;11.73;;
1382;SDS011;685;47.196;11.880;2023-02-13T09:49:27;12.70;;;11.40;;
1382;SDS011;685;47.196;11.880;2023-02-13T09:51:57;8.80;;;7.73;;
1382;SDS011;685;47.196;11.880;2023-02-13T09:54:24;4.50;;;4.07;;
1382;SDS011;685;47.196;11.880;2023-02-13T09:56:56;7.90;;;6.50;;
1382;SDS011;685;47.196;11.880;2023-02-13T09:59:41;6.47;;;5.00;;
1382;SDS011;685;47.196;11.880;2023-02-13T10:02:22;2.70;;;2.50;;
1382;SDS011;685;47.196;11.880;2023-02-13T10:05:06;2.77;;;2.03;;
1382;SDS011;685;47.196;11.880;2023-02-13T10:07:42;2.67;;;2.10;;
1382;SDS011;685;47.196;11.880;2023-02-13T10:10:17;2.33;;;2.10;;
1382;SDS011;685;47.196;11.880;2023-02-13T10:12:55;3.23;;;1.73;;
1382;SDS011;685;47.196;11.880;2023-02-13T10:15:30;2.63;;;1.70;;
1382;SDS011;685;47.196;11.880;2023-02-13T10:18:04;2.07;;;1.50;;
1382;SDS011;685;47.196;11.880;2023-02-13T10:20:36;2.63;;;1.47;;
1382;SDS011;685;47.196;11.880;2023-02-13T10:23:13;2.63;;;1.40;;
1382;SDS011;685;47.196;11.880;2023-02-13T10:25:45;3.00;;;1.50;;
1382;SDS011;685;47.196;11.880;2023-02-13T10:28:19;1.40;;;1.20;;
1382;SDS011;685;47.196;11.880;2023-02-13T10:30:55;2.70;;;1.33;;
1382;SDS011;685;47.196;11.880;2023-02-13T10:33:27;2.40;;;1.40;;
1382;SDS011;685;47.196;11.880;2023-02-13T10:35:58;1.83;;;1.23;;
1382;SDS011;685;47.196;11.880;2023-02-13T10:38:28;6.30;;;1.63;;
1382;SDS011;685;47.196;11.880;2023-02-13T10:41:13;1.50;;;1.30;;
1382;SDS011;685;47.196;11.880;2023-02-13T10:43:51;2.30;;;1.80;;
1382;SDS011;685;47.196;11.880;2023-02-13T10:46:29;1.67;;;1.43;;
1382;SDS011;685;47.196;11.880;2023-02-13T10:49:10;1.93;;;1.70;;
1382;SDS011;685;47.196;11.880;2023-02-13T10:51:50;2.60;;;2.10;;
1382;SDS011;685;47.196;11.880;2023-02-13T10:54:27;1.90;;;1.70;;
1382;SDS011;685;47.196;11.880;2023-02-13T10:57:04;2.17;;;1.97;;
1382;SDS011;685;47.196;11.880;2023-02-13T10:59:42;2.70;;;1.60;;
1382;SDS011;685;47.196;11.880;2023-02-13T11:02:22;2.30;;;2.10;;
1382;SDS011;685;47.196;11.880;2023-02-13T11:04:52;2.20;;;2.00;;
1382;SDS011;685;47.196;11.880;2023-02-13T11:07:24;2.60;;;2.17;;
1382;SDS011;685;47.196;11.880;2023-02-13T11:09:53;3.37;;;2.40;;
1382;SDS011;685;47.196;11.880;2023-02-13T11:12:24;4.10;;;2.30;;
1382;SDS011;685;47.196;11.880;2023-02-13T11:14:54;3.00;;;2.33;;
1382;SDS011;685;47.196;11.880;2023-02-13T11:17:22;2.70;;;2.50;;
1382;SDS011;685;47.196;11.880;2023-02-13T11:19:50;3.30;;;1.97;;
1382;SDS011;685;47.196;11.880;2023-02-13T11:22:26;3.60;;;2.43;;
1382;SDS011;685;47.196;11.880;2023-02-13T11:24:56;3.40;;;2.77;;
1382;SDS011;685;47.196;11.880;2023-02-13T11:27:27;2.80;;;2.33;;
1382;SDS011;685;47.196;11.880;2023-02-13T11:29:57;2.90;;;2.60;;
1382;SDS011;685;47.196;11.880;2023-02-13T11:32:26;2.93;;;2.53;;
1382;SDS011;685;47.196;11.880;2023-02-13T11:34:56;3.03;;;2.63;;
1382;SDS011;685;47.196;11.880;2023-02-13T11:37:26;2.57;;;2.37;;
1382;SDS011;685;47.196;11.880;2023-02-13T11:39:56;3.53;;;2.70;;
1382;SDS011;685;47.196;11.880;2023-02-13T11:42:25;2.30;;;1.83;;
1382;SDS011;685;47.196;11.880;2023-02-13T11:44:54;3.40;;;2.47;;
1382;SDS011;685;47.196;11.880;2023-02-13T11:47:29;2.50;;;2.13;;
1382;SDS011;685;47.196;11.880;2023-02-13T11:50:00;2.20;;;1.90;;
1382;SDS011;685;47.196;11.880;2023-02-13T11:52:28;2.10;;;1.90;;
1382;SDS011;685;47.196;11.880;2023-02-13T11:54:58;2.40;;;2.20;;
1382;SDS011;685;47.196;11.880;2023-02-13T11:57:27;2.70;;;1.70;;
1382;SDS011;685;47.196;11.880;2023-02-13T11:59:56;2.00;;;1.90;;
1382;SDS011;685;47.196;11.880;2023-02-13T12:02:24;2.30;;;1.70;;
1382;SDS011;685;47.196;11.880;2023-02-13T12:04:53;1.70;;;1.60;;
1382;SDS011;685;47.196;11.880;2023-02-13T12:07:23;2.23;;;2.03;;
1382;SDS011;685;47.196;11.880;2023-02-13T12:09:54;2.30;;;2.10;;
1382;SDS011;685;47.196;11.880;2023-02-13T12:12:27;2.53;;;2.33;;
1382;SDS011;685;47.196;11.880;2023-02-13T12:15:00;2.50;;;2.03;;
1382;SDS011;685;47.196;11.880;2023-02-13T12:17:28;2.73;;;2.23;;
1382;SDS011;685;47.196;11.880;2023-02-13T12:19:57;2.93;;;2.30;;
1382;SDS011;685;47.196;11.880;2023-02-13T12:22:38;4.50;;;2.70;;
1382;SDS011;685;47.196;11.880;2023-02-13T12:25:23;2.97;;;2.53;;
1382;SDS011;685;47.196;11.880;2023-02-13T12:28:02;4.17;;;3.10;;
1382;SDS011;685;47.196;11.880;2023-02-13T12:33:31;3.10;;;2.80;;
1382;SDS011;685;47.196;11.880;2023-02-13T12:36:15;3.50;;;3.00;;
1382;SDS011;685;47.196;11.880;2023-02-13T12:38:52;3.53;;;2.87;;
1382;SDS011;685;47.196;11.880;2023-02-13T12:41:34;3.70;;;3.10;;
1382;SDS011;685;47.196;11.880;2023-02-13T12:44:11;3.67;;;3.37;;
1382;SDS011;685;47.196;11.880;2023-02-13T12:47:05;3.03;;;2.63;;
1382;SDS011;685;47.196;11.880;2023-02-13T12:52:35;5.10;;;2.70;;
1382;SDS011;685;47.196;11.880;2023-02-13T12:58:14;4.10;;;2.43;;
1382;SDS011;685;47.196;11.880;2023-02-13T13:01:15;2.50;;;2.30;;
1382;SDS011;685;47.196;11.880;2023-02-13T13:03:51;3.30;;;2.40;;
1382;SDS011;685;47.196;11.880;2023-02-13T13:06:31;4.93;;;3.23;;
1382;SDS011;685;47.196;11.880;2023-02-13T13:09:31;4.23;;;2.83;;
1382;SDS011;685;47.196;11.880;2023-02-13T13:12:26;5.00;;;3.10;;
1382;SDS011;685;47.196;11.880;2023-02-13T13:15:07;3.63;;;2.43;;
1382;SDS011;685;47.196;11.880;2023-02-13T13:17:42;3.07;;;2.40;;
1382;SDS011;685;47.196;11.880;2023-02-13T13:20:32;3.30;;;2.90;;
1382;SDS011;685;47.196;11.880;2023-02-13T13:23:07;3.17;;;2.87;;
1382;SDS011;685;47.196;11.880;2023-02-13T13:25:40;8.10;;;3.00;;
1382;SDS011;685;47.196;11.880;2023-02-13T13:28:15;5.50;;;3.57;;
1382;SDS011;685;47.196;11.880;2023-02-13T13:30:45;4.33;;;3.23;;
1382;SDS011;685;47.196;11.880;2023-02-13T13:33:14;3.60;;;3.30;;
1382;SDS011;685;47.196;11.880;2023-02-13T13:35:43;4.07;;;3.50;;
1382;SDS011;685;47.196;11.880;2023-02-13T13:38:19;4.13;;;2.50;;
1382;SDS011;685;47.196;11.880;2023-02-13T13:40:56;2.70;;;2.40;;
1382;SDS011;685;47.196;11.880;2023-02-13T13:43:30;4.60;;;3.13;;
1382;SDS011;685;47.196;11.880;2023-02-13T13:46:06;4.27;;;3.33;;
1382;SDS011;685;47.196;11.880;2023-02-13T13:51:25;6.47;;;4.33;;
1382;SDS011;685;47.196;11.880;2023-02-13T13:57:03;10.70;;;6.70;;
1382;SDS011;685;47.196;11.880;2023-02-13T13:59:56;9.83;;;6.13;;
1382;SDS011;685;47.196;11.880;2023-02-13T14:02:26;6.23;;;5.10;;
1382;SDS011;685;47.196;11.880;2023-02-13T14:05:09;6.90;;;4.67;;
1382;SDS011;685;47.196;11.880;2023-02-13T14:07:48;7.60;;;4.07;;
1382;SDS011;685;47.196;11.880;2023-02-13T14:13:31;4.27;;;3.67;;
1382;SDS011;685;47.196;11.880;2023-02-13T14:16:01;5.30;;;3.37;;
1382;SDS011;685;47.196;11.880;2023-02-13T14:18:28;5.70;;;3.97;;
1382;SDS011;685;47.196;11.880;2023-02-13T14:20:57;3.83;;;3.40;;
1382;SDS011;685;47.196;11.880;2023-02-13T14:23:28;5.17;;;3.23;;
1382;SDS011;685;47.196;11.880;2023-02-13T14:26:11;3.73;;;2.60;;
1382;SDS011;685;47.196;11.880;2023-02-13T14:28:54;2.80;;;2.57;;
1382;SDS011;685;47.196;11.880;2023-02-13T14:31:30;1.67;;;1.47;;
1382;SDS011;685;47.196;11.880;2023-02-13T14:34:00;7.50;;;2.53;;
1382;SDS011;685;47.196;11.880;2023-02-13T14:36:30;3.50;;;2.30;;
1382;SDS011;685;47.196;11.880;2023-02-13T14:39:00;4.10;;;1.80;;
1382;SDS011;685;47.196;11.880;2023-02-13T14:41:42;3.90;;;2.83;;
1382;SDS011;685;47.196;11.880;2023-02-13T14:44:14;3.87;;;2.60;;
1382;SDS011;685;47.196;11.880;2023-02-13T14:46:45;3.50;;;2.47;;
1382;SDS011;685;47.196;11.880;2023-02-13T14:49:15;3.57;;;2.47;;
1382;SDS011;685;47.196;11.880;2023-02-13T14:51:46;2.60;;;2.33;;
1382;SDS011;685;47.196;11.880;2023-02-13T14:54:18;1.83;;;1.67;;
1382;SDS011;685;47.196;11.880;2023-02-13T14:56:52;4.30;;;2.00;;
1382;SDS011;685;47.196;11.880;2023-02-13T14:59:25;2.83;;;1.87;;
1382;SDS011;685;47.196;11.880;2023-02-13T15:01:59;3.73;;;2.40;;
1382;SDS011;685;47.196;11.880;2023-02-13T15:04:31;3.30;;;2.33;;
1382;SDS011;685;47.196;11.880;2023-02-13T15:07:04;3.20;;;2.10;;
1382;SDS011;685;47.196;11.880;2023-02-13T15:09:38;3.93;;;2.37;;
1382;SDS011;685;47.196;11.880;2023-02-13T15:12:22;2.73;;;2.13;;
1382;SDS011;685;47.196;11.880;2023-02-13T15:14:50;4.07;;;2.60;;
1382;SDS011;685;47.196;11.880;2023-02-13T15:17:19;2.77;;;2.00;;
1382;SDS011;685;47.196;11.880;2023-02-13T15:19:49;3.47;;;1.70;;
1382;SDS011;685;47.196;11.880;2023-02-13T15:22:19;2.77;;;1.50;;
1382;SDS011;685;47.196;11.880;2023-02-13T15:24:50;7.57;;;4.60;;
1382;SDS011;685;47.196;11.880;2023-02-13T15:27:19;9.30;;;5.07;;
1382;SDS011;685;47.196;11.880;2023-02-13T15:29:53;5.33;;;3.30;;
1382;SDS011;685;47.196;11.880;2023-02-13T15:32:26;9.73;;;2.60;;
1382;SDS011;685;47.196;11.880;2023-02-13T15:34:55;3.50;;;2.30;;
1382;SDS011;685;47.196;11.880;2023-02-13T15:37:23;3.50;;;2.50;;
1382;SDS011;685;47.196;11.880;2023-02-13T15:39:52;3.27;;;2.37;;
1382;SDS011;685;47.196;11.880;2023-02-13T15:42:19;2.20;;;1.60;;
1382;SDS011;685;47.196;11.880;2023-02-13T15:44:47;2.60;;;1.90;;
1382;SDS011;685;47.196;11.880;2023-02-13T15:47:17;3.20;;;2.03;;
1382;SDS011;685;47.196;11.880;2023-02-13T15:49:52;2.77;;;2.03;;
1382;SDS011;685;47.196;11.880;2023-02-13T15:52:20;6.33;;;5.13;;
1382;SDS011;685;47.196;11.880;2023-02-13T15:54:53;8.77;;;4.63;;
1382;SDS011;685;47.196;11.880;2023-02-13T15:57:20;5.67;;;5.07;;
1382;SDS011;685;47.196;11.880;2023-02-13T15:59:48;8.00;;;7.10;;
1382;SDS011;685;47.196;11.880;2023-02-13T16:02:17;4.70;;;4.03;;
1382;SDS011;685;47.196;11.880;2023-02-13T16:04:46;3.93;;;3.53;;
1382;SDS011;685;47.196;11.880;2023-02-13T16:07:17;5.93;;;5.43;;